sensor_id;sensor_type;location;lat;lon;timestamp;P1;durP1;ratioP1;P2;durP2;ratioP2
6292;SDS011;3179;54.350;10.102;2022-10-31T00:00:03;12.27;;;10.57;;
6292;SDS011;3179;54.350;10.102;2022-10-31T00:02:31;15.60;;;11.53;;
6292;SDS011;3179;54.350;10.102;2022-10-31T00:04:58;16.50;;;10.47;;
6292;SDS011;3179;54.350;10.102;2022-10-31T00:07:26;13.73;;;9.90;;
6292;SDS011;3179;54.350;10.102;2022-10-31T00:09:53;17.03;;;10.20;;
6292;SDS011;3179;54.350;10.102;2022-10-31T00:12:19;16.60;;;11.43;;
6292;SDS011;3179;54.350;10.102;2022-10-31T00:14:46;13.13;;;10.50;;
6292;SDS011;3179;54.350;10.102;2022-10-31T00:17:13;14.97;;;9.67;;
6292;SDS011;3179;54.350;10.102;2022-10-31T00:19:39;13.17;;;10.87;;
6292;SDS011;3179;54.350;10.102;2022-10-31T00:22:06;17.13;;;12.23;;
6292;SDS011;3179;54.350;10.102;2022-10-31T00:24:34;19.57;;;11.40;;
6292;SDS011;3179;54.350;10.102;2022-10-31T00:27:01;19.27;;;11.07;;
6292;SDS011;3179;54.350;10.102;2022-10-31T00:29:28;17.30;;;11.40;;
6292;SDS011;3179;54.350;10.102;2022-10-31T00:31:54;14.70;;;10.33;;
6292;SDS011;3179;54.350;10.102;2022-10-31T00:34:21;11.40;;;9.70;;
6292;SDS011;3179;54.350;10.102;2022-10-31T00:36:48;13.40;;;9.43;;
6292;SDS011;3179;54.350;10.102;2022-10-31T00:39:15;13.43;;;10.13;;
6292;SDS011;3179;54.350;10.102;2022-10-31T00:41:43;16.10;;;10.63;;
6292;SDS011;3179;54.350;10.102;2022-10-31T00:44:10;15.53;;;10.10;;
6292;SDS011;3179;54.350;10.102;2022-10-31T00:46:37;18.50;;;10.97;;
6292;SDS011;3179;54.350;10.102;2022-10-31T00:49:03;13.83;;;10.50;;
6292;SDS011;3179;54.350;10.102;2022-10-31T00:51:30;14.03;;;10.40;;
6292;SDS011;3179;54.350;10.102;2022-10-31T00:53:57;15.80;;;11.20;;
6292;SDS011;3179;54.350;10.102;2022-10-31T00:56:23;15.47;;;10.93;;
6292;SDS011;3179;54.350;10.102;2022-10-31T00:58:52;12.27;;;9.97;;
6292;SDS011;3179;54.350;10.102;2022-10-31T01:01:18;15.90;;;10.63;;
6292;SDS011;3179;54.350;10.102;2022-10-31T01:03:45;16.77;;;9.70;;
6292;SDS011;3179;54.350;10.102;2022-10-31T01:06:12;14.70;;;10.40;;
6292;SDS011;3179;54.350;10.102;2022-10-31T01:08:39;14.67;;;10.40;;
6292;SDS011;3179;54.350;10.102;2022-10-31T01:11:08;14.53;;;10.30;;
6292;SDS011;3179;54.350;10.102;2022-10-31T01:13:37;14.83;;;11.33;;
6292;SDS011;3179;54.350;10.102;2022-10-31T01:16:06;13.93;;;10.43;;
6292;SDS011;3179;54.350;10.102;2022-10-31T01:18:34;12.97;;;9.60;;
6292;SDS011;3179;54.350;10.102;2022-10-31T01:21:02;11.77;;;9.27;;
6292;SDS011;3179;54.350;10.102;2022-10-31T01:23:30;14.23;;;9.70;;
6292;SDS011;3179;54.350;10.102;2022-10-31T01:25:59;14.73;;;9.90;;
6292;SDS011;3179;54.350;10.102;2022-10-31T01:28:29;11.60;;;9.00;;
6292;SDS011;3179;54.350;10.102;2022-10-31T01:30:59;14.50;;;10.40;;
6292;SDS011;3179;54.350;10.102;2022-10-31T01:33:28;20.50;;;10.37;;
6292;SDS011;3179;54.350;10.102;2022-10-31T01:35:55;13.50;;;10.10;;
6292;SDS011;3179;54.350;10.102;2022-10-31T01:38:21;14.90;;;10.90;;
6292;SDS011;3179;54.350;10.102;2022-10-31T01:40:49;14.83;;;10.20;;
6292;SDS011;3179;54.350;10.102;2022-10-31T01:43:16;11.73;;;9.60;;
6292;SDS011;3179;54.350;10.102;2022-10-31T01:45:43;15.00;;;10.67;;
6292;SDS011;3179;54.350;10.102;2022-10-31T01:48:15;10.80;;;9.43;;
6292;SDS011;3179;54.350;10.102;2022-10-31T01:50:46;12.07;;;9.90;;
6292;SDS011;3179;54.350;10.102;2022-10-31T01:53:16;11.10;;;9.60;;
6292;SDS011;3179;54.350;10.102;2022-10-31T01:55:44;18.70;;;10.63;;
6292;SDS011;3179;54.350;10.102;2022-10-31T01:58:13;17.77;;;11.40;;
6292;SDS011;3179;54.350;10.102;2022-10-31T02:00:43;20.40;;;11.93;;
6292;SDS011;3179;54.350;10.102;2022-10-31T02:03:14;18.87;;;11.33;;
6292;SDS011;3179;54.350;10.102;2022-10-31T02:05:42;19.10;;;12.60;;
6292;SDS011;3179;54.350;10.102;2022-10-31T02:08:11;21.13;;;13.40;;
6292;SDS011;3179;54.350;10.102;2022-10-31T02:10:42;20.30;;;12.87;;
6292;SDS011;3179;54.350;10.102;2022-10-31T02:13:09;24.20;;;15.17;;
6292;SDS011;3179;54.350;10.102;2022-10-31T02:15:38;21.83;;;14.40;;
6292;SDS011;3179;54.350;10.102;2022-10-31T02:18:06;22.13;;;14.10;;
6292;SDS011;3179;54.350;10.102;2022-10-31T02:20:36;22.60;;;14.40;;
6292;SDS011;3179;54.350;10.102;2022-10-31T02:23:18;21.43;;;13.83;;
6292;SDS011;3179;54.350;10.102;2022-10-31T02:26:07;21.40;;;14.53;;
6292;SDS011;3179;54.350;10.102;2022-10-31T02:29:01;32.07;;;14.30;;
6292;SDS011;3179;54.350;10.102;2022-10-31T02:31:43;18.73;;;13.30;;
6292;SDS011;3179;54.350;10.102;2022-10-31T02:34:18;28.23;;;13.97;;
6292;SDS011;3179;54.350;10.102;2022-10-31T02:36:49;25.60;;;15.33;;
6292;SDS011;3179;54.350;10.102;2022-10-31T02:39:23;27.60;;;13.60;;
6292;SDS011;3179;54.350;10.102;2022-10-31T02:41:55;24.30;;;14.83;;
6292;SDS011;3179;54.350;10.102;2022-10-31T02:44:31;27.50;;;14.43;;
6292;SDS011;3179;54.350;10.102;2022-10-31T02:47:06;25.97;;;14.80;;
6292;SDS011;3179;54.350;10.102;2022-10-31T02:49:38;23.93;;;14.47;;
6292;SDS011;3179;54.350;10.102;2022-10-31T02:52:14;27.23;;;15.43;;
6292;SDS011;3179;54.350;10.102;2022-10-31T02:54:43;28.50;;;15.30;;
6292;SDS011;3179;54.350;10.102;2022-10-31T02:57:12;29.07;;;15.30;;
6292;SDS011;3179;54.350;10.102;2022-10-31T02:59:41;25.40;;;16.63;;
6292;SDS011;3179;54.350;10.102;2022-10-31T03:02:23;23.33;;;16.10;;
6292;SDS011;3179;54.350;10.102;2022-10-31T03:08:05;21.43;;;14.90;;
6292;SDS011;3179;54.350;10.102;2022-10-31T03:10:39;22.80;;;15.73;;
6292;SDS011;3179;54.350;10.102;2022-10-31T03:13:10;22.33;;;14.70;;
6292;SDS011;3179;54.350;10.102;2022-10-31T03:15:43;17.33;;;14.07;;
6292;SDS011;3179;54.350;10.102;2022-10-31T03:18:17;23.50;;;16.80;;
6292;SDS011;3179;54.350;10.102;2022-10-31T03:20:50;18.70;;;14.13;;
6292;SDS011;3179;54.350;10.102;2022-10-31T03:23:23;21.33;;;15.30;;
6292;SDS011;3179;54.350;10.102;2022-10-31T03:25:51;20.57;;;15.20;;
6292;SDS011;3179;54.350;10.102;2022-10-31T03:28:21;19.60;;;14.30;;
6292;SDS011;3179;54.350;10.102;2022-10-31T03:30:52;19.77;;;14.87;;
6292;SDS011;3179;54.350;10.102;2022-10-31T03:33:23;22.60;;;15.17;;
6292;SDS011;3179;54.350;10.102;2022-10-31T03:35:57;19.53;;;14.40;;
6292;SDS011;3179;54.350;10.102;2022-10-31T03:38:27;20.60;;;14.77;;
6292;SDS011;3179;54.350;10.102;2022-10-31T03:40:55;22.30;;;16.03;;
6292;SDS011;3179;54.350;10.102;2022-10-31T03:43:26;18.97;;;14.77;;
6292;SDS011;3179;54.350;10.102;2022-10-31T03:45:56;20.60;;;15.70;;
6292;SDS011;3179;54.350;10.102;2022-10-31T03:48:24;20.63;;;15.17;;
6292;SDS011;3179;54.350;10.102;2022-10-31T03:50:57;19.40;;;14.73;;
6292;SDS011;3179;54.350;10.102;2022-10-31T03:53:32;22.20;;;15.90;;
6292;SDS011;3179;54.350;10.102;2022-10-31T03:56:04;19.57;;;15.53;;
6292;SDS011;3179;54.350;10.102;2022-10-31T03:58:36;20.30;;;15.33;;
6292;SDS011;3179;54.350;10.102;2022-10-31T04:01:05;22.00;;;15.83;;
6292;SDS011;3179;54.350;10.102;2022-10-31T04:03:36;20.23;;;15.40;;
6292;SDS011;3179;54.350;10.102;2022-10-31T04:06:05;19.07;;;14.43;;
6292;SDS011;3179;54.350;10.102;2022-10-31T04:08:37;19.13;;;14.90;;
6292;SDS011;3179;54.350;10.102;2022-10-31T04:11:08;19.97;;;14.87;;
6292;SDS011;3179;54.350;10.102;2022-10-31T04:13:38;21.23;;;15.57;;
6292;SDS011;3179;54.350;10.102;2022-10-31T04:16:07;19.90;;;15.50;;
6292;SDS011;3179;54.350;10.102;2022-10-31T04:18:37;17.60;;;14.77;;
6292;SDS011;3179;54.350;10.102;2022-10-31T04:21:04;20.63;;;16.33;;
6292;SDS011;3179;54.350;10.102;2022-10-31T04:23:33;20.17;;;15.77;;
6292;SDS011;3179;54.350;10.102;2022-10-31T04:26:00;21.37;;;15.63;;
6292;SDS011;3179;54.350;10.102;2022-10-31T04:28:27;20.87;;;16.03;;
6292;SDS011;3179;54.350;10.102;2022-10-31T04:30:54;22.77;;;15.70;;
6292;SDS011;3179;54.350;10.102;2022-10-31T04:33:27;21.30;;;16.20;;
6292;SDS011;3179;54.350;10.102;2022-10-31T04:35:55;21.60;;;14.60;;
6292;SDS011;3179;54.350;10.102;2022-10-31T04:38:22;23.70;;;16.27;;
6292;SDS011;3179;54.350;10.102;2022-10-31T04:40:49;20.07;;;14.83;;
6292;SDS011;3179;54.350;10.102;2022-10-31T04:43:17;23.67;;;18.10;;
6292;SDS011;3179;54.350;10.102;2022-10-31T04:45:44;20.50;;;16.23;;
6292;SDS011;3179;54.350;10.102;2022-10-31T04:48:10;23.57;;;16.57;;
6292;SDS011;3179;54.350;10.102;2022-10-31T04:50:37;23.77;;;15.80;;
6292;SDS011;3179;54.350;10.102;2022-10-31T04:53:05;21.77;;;16.57;;
6292;SDS011;3179;54.350;10.102;2022-10-31T04:55:32;22.07;;;16.33;;
6292;SDS011;3179;54.350;10.102;2022-10-31T04:57:59;22.33;;;16.37;;
6292;SDS011;3179;54.350;10.102;2022-10-31T05:00:25;23.10;;;16.20;;
6292;SDS011;3179;54.350;10.102;2022-10-31T05:02:53;24.43;;;17.53;;
6292;SDS011;3179;54.350;10.102;2022-10-31T05:05:21;25.97;;;17.27;;
6292;SDS011;3179;54.350;10.102;2022-10-31T05:07:50;26.17;;;17.50;;
6292;SDS011;3179;54.350;10.102;2022-10-31T05:10:19;24.87;;;17.10;;
6292;SDS011;3179;54.350;10.102;2022-10-31T05:12:48;25.67;;;16.60;;
6292;SDS011;3179;54.350;10.102;2022-10-31T05:15:17;22.17;;;15.60;;
6292;SDS011;3179;54.350;10.102;2022-10-31T05:17:45;21.43;;;15.93;;
6292;SDS011;3179;54.350;10.102;2022-10-31T05:20:12;25.10;;;17.67;;
6292;SDS011;3179;54.350;10.102;2022-10-31T05:22:43;24.63;;;17.27;;
6292;SDS011;3179;54.350;10.102;2022-10-31T05:25:11;25.80;;;16.83;;
6292;SDS011;3179;54.350;10.102;2022-10-31T05:27:40;23.90;;;16.07;;
6292;SDS011;3179;54.350;10.102;2022-10-31T05:30:08;29.27;;;17.43;;
6292;SDS011;3179;54.350;10.102;2022-10-31T05:32:36;25.13;;;17.20;;
6292;SDS011;3179;54.350;10.102;2022-10-31T05:35:04;24.37;;;16.83;;
6292;SDS011;3179;54.350;10.102;2022-10-31T05:37:33;25.37;;;17.60;;
6292;SDS011;3179;54.350;10.102;2022-10-31T05:40:00;25.40;;;16.80;;
6292;SDS011;3179;54.350;10.102;2022-10-31T05:42:26;23.80;;;16.40;;
6292;SDS011;3179;54.350;10.102;2022-10-31T05:44:54;24.90;;;16.80;;
6292;SDS011;3179;54.350;10.102;2022-10-31T05:47:21;26.67;;;15.90;;
6292;SDS011;3179;54.350;10.102;2022-10-31T05:49:48;20.93;;;16.43;;
6292;SDS011;3179;54.350;10.102;2022-10-31T05:52:15;28.03;;;16.97;;
6292;SDS011;3179;54.350;10.102;2022-10-31T05:54:42;26.63;;;18.13;;
6292;SDS011;3179;54.350;10.102;2022-10-31T05:57:09;26.13;;;16.67;;
6292;SDS011;3179;54.350;10.102;2022-10-31T05:59:36;22.47;;;15.07;;
6292;SDS011;3179;54.350;10.102;2022-10-31T06:02:05;23.93;;;15.93;;
6292;SDS011;3179;54.350;10.102;2022-10-31T06:04:32;26.37;;;16.37;;
6292;SDS011;3179;54.350;10.102;2022-10-31T06:06:58;23.63;;;16.23;;
6292;SDS011;3179;54.350;10.102;2022-10-31T06:09:25;29.50;;;16.40;;
6292;SDS011;3179;54.350;10.102;2022-10-31T06:11:52;23.17;;;16.80;;
6292;SDS011;3179;54.350;10.102;2022-10-31T06:14:19;23.90;;;17.10;;
6292;SDS011;3179;54.350;10.102;2022-10-31T06:16:46;26.50;;;17.67;;
6292;SDS011;3179;54.350;10.102;2022-10-31T06:19:14;21.63;;;16.40;;
6292;SDS011;3179;54.350;10.102;2022-10-31T06:21:40;24.97;;;17.07;;
6292;SDS011;3179;54.350;10.102;2022-10-31T06:24:07;27.17;;;16.80;;
6292;SDS011;3179;54.350;10.102;2022-10-31T06:26:34;28.13;;;17.33;;
6292;SDS011;3179;54.350;10.102;2022-10-31T06:29:01;24.67;;;16.07;;
6292;SDS011;3179;54.350;10.102;2022-10-31T06:31:27;25.50;;;17.03;;
6292;SDS011;3179;54.350;10.102;2022-10-31T06:33:54;25.43;;;16.00;;
6292;SDS011;3179;54.350;10.102;2022-10-31T06:36:22;27.33;;;17.27;;
6292;SDS011;3179;54.350;10.102;2022-10-31T06:38:49;31.70;;;17.43;;
6292;SDS011;3179;54.350;10.102;2022-10-31T06:41:16;24.70;;;16.70;;
6292;SDS011;3179;54.350;10.102;2022-10-31T06:43:45;21.30;;;16.27;;
6292;SDS011;3179;54.350;10.102;2022-10-31T06:46:12;25.00;;;16.60;;
6292;SDS011;3179;54.350;10.102;2022-10-31T06:48:39;21.10;;;14.00;;
6292;SDS011;3179;54.350;10.102;2022-10-31T06:51:06;21.10;;;14.50;;
6292;SDS011;3179;54.350;10.102;2022-10-31T06:53:34;20.00;;;14.07;;
6292;SDS011;3179;54.350;10.102;2022-10-31T06:56:01;17.60;;;14.00;;
6292;SDS011;3179;54.350;10.102;2022-10-31T06:58:28;17.97;;;12.73;;
6292;SDS011;3179;54.350;10.102;2022-10-31T07:00:55;15.10;;;11.80;;
6292;SDS011;3179;54.350;10.102;2022-10-31T07:03:25;16.30;;;12.30;;
6292;SDS011;3179;54.350;10.102;2022-10-31T07:05:51;16.10;;;11.33;;
6292;SDS011;3179;54.350;10.102;2022-10-31T07:08:20;15.63;;;10.87;;
6292;SDS011;3179;54.350;10.102;2022-10-31T07:10:52;12.57;;;10.87;;
6292;SDS011;3179;54.350;10.102;2022-10-31T07:13:20;14.93;;;12.10;;
6292;SDS011;3179;54.350;10.102;2022-10-31T07:15:50;12.37;;;10.63;;
6292;SDS011;3179;54.350;10.102;2022-10-31T07:18:18;12.57;;;10.10;;
6292;SDS011;3179;54.350;10.102;2022-10-31T07:20:45;12.60;;;9.43;;
6292;SDS011;3179;54.350;10.102;2022-10-31T07:23:12;16.93;;;11.10;;
6292;SDS011;3179;54.350;10.102;2022-10-31T07:25:39;11.80;;;10.40;;
6292;SDS011;3179;54.350;10.102;2022-10-31T07:28:08;13.93;;;10.67;;
6292;SDS011;3179;54.350;10.102;2022-10-31T07:30:35;13.63;;;9.47;;
6292;SDS011;3179;54.350;10.102;2022-10-31T07:33:01;13.77;;;10.70;;
6292;SDS011;3179;54.350;10.102;2022-10-31T07:35:29;12.77;;;10.23;;
6292;SDS011;3179;54.350;10.102;2022-10-31T07:37:56;13.70;;;10.53;;
6292;SDS011;3179;54.350;10.102;2022-10-31T07:40:23;11.90;;;9.87;;
6292;SDS011;3179;54.350;10.102;2022-10-31T07:42:51;13.73;;;11.33;;
6292;SDS011;3179;54.350;10.102;2022-10-31T07:45:20;13.40;;;10.63;;
6292;SDS011;3179;54.350;10.102;2022-10-31T07:47:48;11.97;;;10.27;;
6292;SDS011;3179;54.350;10.102;2022-10-31T07:50:16;14.33;;;10.87;;
6292;SDS011;3179;54.350;10.102;2022-10-31T07:52:48;14.57;;;11.30;;
6292;SDS011;3179;54.350;10.102;2022-10-31T07:55:23;11.20;;;9.30;;
6292;SDS011;3179;54.350;10.102;2022-10-31T07:57:55;12.30;;;9.97;;
6292;SDS011;3179;54.350;10.102;2022-10-31T08:00:25;13.97;;;10.00;;
6292;SDS011;3179;54.350;10.102;2022-10-31T08:02:56;13.87;;;10.33;;
6292;SDS011;3179;54.350;10.102;2022-10-31T08:05:23;14.37;;;9.97;;
6292;SDS011;3179;54.350;10.102;2022-10-31T08:07:50;14.73;;;11.03;;
6292;SDS011;3179;54.350;10.102;2022-10-31T08:10:17;13.17;;;10.27;;
6292;SDS011;3179;54.350;10.102;2022-10-31T08:12:44;11.77;;;9.23;;
6292;SDS011;3179;54.350;10.102;2022-10-31T08:15:11;12.53;;;9.67;;
6292;SDS011;3179;54.350;10.102;2022-10-31T08:17:39;14.37;;;9.90;;
6292;SDS011;3179;54.350;10.102;2022-10-31T08:20:06;13.70;;;9.07;;
6292;SDS011;3179;54.350;10.102;2022-10-31T08:22:34;10.60;;;8.60;;
6292;SDS011;3179;54.350;10.102;2022-10-31T08:25:00;9.20;;;7.43;;
6292;SDS011;3179;54.350;10.102;2022-10-31T08:27:27;11.33;;;8.23;;
6292;SDS011;3179;54.350;10.102;2022-10-31T08:29:54;13.60;;;8.53;;
6292;SDS011;3179;54.350;10.102;2022-10-31T08:32:21;26.73;;;8.63;;
6292;SDS011;3179;54.350;10.102;2022-10-31T08:34:49;9.83;;;7.60;;
6292;SDS011;3179;54.350;10.102;2022-10-31T08:37:16;10.57;;;7.97;;
6292;SDS011;3179;54.350;10.102;2022-10-31T08:39:44;11.67;;;8.20;;
6292;SDS011;3179;54.350;10.102;2022-10-31T08:42:12;11.33;;;8.50;;
6292;SDS011;3179;54.350;10.102;2022-10-31T08:44:38;11.10;;;9.00;;
6292;SDS011;3179;54.350;10.102;2022-10-31T08:47:05;9.20;;;8.23;;
6292;SDS011;3179;54.350;10.102;2022-10-31T08:49:32;8.10;;;7.03;;
6292;SDS011;3179;54.350;10.102;2022-10-31T08:52:00;9.27;;;8.23;;
6292;SDS011;3179;54.350;10.102;2022-10-31T08:54:27;10.43;;;7.90;;
6292;SDS011;3179;54.350;10.102;2022-10-31T08:56:54;9.70;;;7.70;;
6292;SDS011;3179;54.350;10.102;2022-10-31T08:59:21;9.10;;;7.97;;
6292;SDS011;3179;54.350;10.102;2022-10-31T09:01:48;9.60;;;7.80;;
6292;SDS011;3179;54.350;10.102;2022-10-31T09:04:15;8.23;;;6.93;;
6292;SDS011;3179;54.350;10.102;2022-10-31T09:06:42;10.10;;;8.13;;
6292;SDS011;3179;54.350;10.102;2022-10-31T09:09:10;8.13;;;7.17;;
6292;SDS011;3179;54.350;10.102;2022-10-31T09:11:37;7.47;;;6.03;;
6292;SDS011;3179;54.350;10.102;2022-10-31T09:14:04;10.63;;;7.27;;
6292;SDS011;3179;54.350;10.102;2022-10-31T09:16:30;8.73;;;6.60;;
6292;SDS011;3179;54.350;10.102;2022-10-31T09:18:57;9.83;;;6.90;;
6292;SDS011;3179;54.350;10.102;2022-10-31T09:21:24;8.20;;;5.90;;
6292;SDS011;3179;54.350;10.102;2022-10-31T09:23:51;8.03;;;6.13;;
6292;SDS011;3179;54.350;10.102;2022-10-31T09:26:20;7.40;;;5.80;;
6292;SDS011;3179;54.350;10.102;2022-10-31T09:28:46;10.03;;;5.90;;
6292;SDS011;3179;54.350;10.102;2022-10-31T09:31:13;9.23;;;6.10;;
6292;SDS011;3179;54.350;10.102;2022-10-31T09:33:40;10.10;;;6.60;;
6292;SDS011;3179;54.350;10.102;2022-10-31T09:36:07;11.07;;;5.83;;
6292;SDS011;3179;54.350;10.102;2022-10-31T09:38:34;9.87;;;6.13;;
6292;SDS011;3179;54.350;10.102;2022-10-31T09:41:03;11.60;;;6.67;;
6292;SDS011;3179;54.350;10.102;2022-10-31T09:50:24;13.30;;;6.57;;
6292;SDS011;3179;54.350;10.102;2022-10-31T09:52:54;11.27;;;6.80;;
6292;SDS011;3179;54.350;10.102;2022-10-31T09:55:30;13.07;;;6.90;;
6292;SDS011;3179;54.350;10.102;2022-10-31T09:58:01;13.23;;;6.80;;
6292;SDS011;3179;54.350;10.102;2022-10-31T10:00:28;11.50;;;7.00;;
6292;SDS011;3179;54.350;10.102;2022-10-31T10:02:57;13.87;;;6.33;;
6292;SDS011;3179;54.350;10.102;2022-10-31T10:05:34;10.83;;;6.00;;
6292;SDS011;3179;54.350;10.102;2022-10-31T10:08:08;10.27;;;6.37;;
6292;SDS011;3179;54.350;10.102;2022-10-31T10:10:41;15.47;;;8.23;;
6292;SDS011;3179;54.350;10.102;2022-10-31T10:13:37;10.63;;;6.70;;
6292;SDS011;3179;54.350;10.102;2022-10-31T10:16:15;11.23;;;6.70;;
6292;SDS011;3179;54.350;10.102;2022-10-31T10:18:55;9.67;;;6.20;;
6292;SDS011;3179;54.350;10.102;2022-10-31T10:21:35;10.87;;;7.40;;
6292;SDS011;3179;54.350;10.102;2022-10-31T10:24:12;9.83;;;6.83;;
6292;SDS011;3179;54.350;10.102;2022-10-31T10:26:54;14.67;;;7.43;;
6292;SDS011;3179;54.350;10.102;2022-10-31T10:29:33;13.00;;;6.57;;
6292;SDS011;3179;54.350;10.102;2022-10-31T10:32:09;14.10;;;6.60;;
6292;SDS011;3179;54.350;10.102;2022-10-31T10:34:41;12.50;;;7.40;;
6292;SDS011;3179;54.350;10.102;2022-10-31T10:37:23;15.83;;;7.37;;
6292;SDS011;3179;54.350;10.102;2022-10-31T10:39:55;16.67;;;7.40;;
6292;SDS011;3179;54.350;10.102;2022-10-31T10:42:33;10.73;;;6.30;;
6292;SDS011;3179;54.350;10.102;2022-10-31T10:45:22;11.00;;;4.77;;
6292;SDS011;3179;54.350;10.102;2022-10-31T10:48:15;6.03;;;4.20;;
6292;SDS011;3179;54.350;10.102;2022-10-31T10:50:50;11.80;;;4.97;;
6292;SDS011;3179;54.350;10.102;2022-10-31T10:53:24;11.20;;;4.57;;
6292;SDS011;3179;54.350;10.102;2022-10-31T10:56:08;4.30;;;2.70;;
6292;SDS011;3179;54.350;10.102;2022-10-31T10:58:41;8.20;;;2.93;;
6292;SDS011;3179;54.350;10.102;2022-10-31T11:01:10;7.60;;;2.23;;
6292;SDS011;3179;54.350;10.102;2022-10-31T11:03:38;4.67;;;2.27;;
6292;SDS011;3179;54.350;10.102;2022-10-31T11:06:15;5.03;;;2.37;;
6292;SDS011;3179;54.350;10.102;2022-10-31T11:08:48;8.33;;;2.70;;
6292;SDS011;3179;54.350;10.102;2022-10-31T11:11:19;4.33;;;2.50;;
6292;SDS011;3179;54.350;10.102;2022-10-31T11:13:52;4.80;;;2.93;;
6292;SDS011;3179;54.350;10.102;2022-10-31T11:16:28;3.50;;;2.70;;
6292;SDS011;3179;54.350;10.102;2022-10-31T11:19:05;7.17;;;2.90;;
6292;SDS011;3179;54.350;10.102;2022-10-31T11:21:34;6.80;;;3.37;;
6292;SDS011;3179;54.350;10.102;2022-10-31T11:24:03;7.50;;;3.67;;
6292;SDS011;3179;54.350;10.102;2022-10-31T11:26:39;19.07;;;3.83;;
6292;SDS011;3179;54.350;10.102;2022-10-31T11:29:10;7.23;;;3.40;;
6292;SDS011;3179;54.350;10.102;2022-10-31T11:31:40;7.73;;;3.67;;
6292;SDS011;3179;54.350;10.102;2022-10-31T11:34:12;6.87;;;4.07;;
6292;SDS011;3179;54.350;10.102;2022-10-31T11:36:44;5.97;;;3.50;;
6292;SDS011;3179;54.350;10.102;2022-10-31T11:39:17;12.90;;;3.97;;
6292;SDS011;3179;54.350;10.102;2022-10-31T11:41:46;7.83;;;3.40;;
6292;SDS011;3179;54.350;10.102;2022-10-31T11:44:15;8.63;;;3.30;;
6292;SDS011;3179;54.350;10.102;2022-10-31T11:46:44;10.00;;;4.73;;
6292;SDS011;3179;54.350;10.102;2022-10-31T11:49:15;9.00;;;3.70;;
6292;SDS011;3179;54.350;10.102;2022-10-31T11:51:46;5.63;;;4.60;;
6292;SDS011;3179;54.350;10.102;2022-10-31T11:54:20;8.30;;;4.07;;
6292;SDS011;3179;54.350;10.102;2022-10-31T11:56:49;5.53;;;4.40;;
6292;SDS011;3179;54.350;10.102;2022-10-31T11:59:24;8.50;;;5.07;;
6292;SDS011;3179;54.350;10.102;2022-10-31T12:01:53;8.17;;;5.77;;
6292;SDS011;3179;54.350;10.102;2022-10-31T12:04:24;6.67;;;5.73;;
6292;SDS011;3179;54.350;10.102;2022-10-31T12:07:01;7.47;;;6.07;;
6292;SDS011;3179;54.350;10.102;2022-10-31T12:09:29;6.97;;;6.03;;
6292;SDS011;3179;54.350;10.102;2022-10-31T12:12:05;9.20;;;6.57;;
6292;SDS011;3179;54.350;10.102;2022-10-31T12:14:45;9.20;;;7.00;;
6292;SDS011;3179;54.350;10.102;2022-10-31T12:17:18;13.47;;;7.90;;
6292;SDS011;3179;54.350;10.102;2022-10-31T12:19:51;12.60;;;7.63;;
6292;SDS011;3179;54.350;10.102;2022-10-31T12:22:30;11.10;;;7.77;;
6292;SDS011;3179;54.350;10.102;2022-10-31T12:25:14;11.30;;;7.20;;
6292;SDS011;3179;54.350;10.102;2022-10-31T12:27:57;9.83;;;7.47;;
6292;SDS011;3179;54.350;10.102;2022-10-31T12:30:48;10.00;;;7.60;;
6292;SDS011;3179;54.350;10.102;2022-10-31T12:33:32;13.10;;;7.30;;
6292;SDS011;3179;54.350;10.102;2022-10-31T12:36:20;10.60;;;7.33;;
6292;SDS011;3179;54.350;10.102;2022-10-31T12:39:13;10.40;;;7.10;;
6292;SDS011;3179;54.350;10.102;2022-10-31T12:41:52;8.80;;;7.33;;
6292;SDS011;3179;54.350;10.102;2022-10-31T12:44:42;8.60;;;6.60;;
6292;SDS011;3179;54.350;10.102;2022-10-31T12:47:33;11.83;;;6.83;;
6292;SDS011;3179;54.350;10.102;2022-10-31T12:50:22;8.27;;;7.00;;
6292;SDS011;3179;54.350;10.102;2022-10-31T12:53:03;12.20;;;7.20;;
6292;SDS011;3179;54.350;10.102;2022-10-31T12:55:44;10.70;;;5.90;;
6292;SDS011;3179;54.350;10.102;2022-10-31T12:58:24;12.23;;;5.80;;
6292;SDS011;3179;54.350;10.102;2022-10-31T13:01:00;6.77;;;5.27;;
6292;SDS011;3179;54.350;10.102;2022-10-31T13:03:33;10.53;;;5.37;;
6292;SDS011;3179;54.350;10.102;2022-10-31T13:06:07;10.27;;;6.10;;
6292;SDS011;3179;54.350;10.102;2022-10-31T13:08:52;9.97;;;4.90;;
6292;SDS011;3179;54.350;10.102;2022-10-31T13:11:21;5.70;;;4.90;;
6292;SDS011;3179;54.350;10.102;2022-10-31T13:13:56;6.13;;;5.10;;
6292;SDS011;3179;54.350;10.102;2022-10-31T13:16:28;10.53;;;5.63;;
6292;SDS011;3179;54.350;10.102;2022-10-31T13:19:00;11.70;;;5.93;;
6292;SDS011;3179;54.350;10.102;2022-10-31T13:21:33;11.63;;;4.97;;
6292;SDS011;3179;54.350;10.102;2022-10-31T13:24:04;8.33;;;5.47;;
6292;SDS011;3179;54.350;10.102;2022-10-31T13:26:36;7.40;;;5.17;;
6292;SDS011;3179;54.350;10.102;2022-10-31T13:29:09;9.30;;;4.77;;
6292;SDS011;3179;54.350;10.102;2022-10-31T13:31:42;8.63;;;4.80;;
6292;SDS011;3179;54.350;10.102;2022-10-31T13:34:11;8.30;;;4.70;;
6292;SDS011;3179;54.350;10.102;2022-10-31T13:36:48;7.30;;;5.00;;
6292;SDS011;3179;54.350;10.102;2022-10-31T13:39:23;11.50;;;5.40;;
6292;SDS011;3179;54.350;10.102;2022-10-31T13:41:59;12.40;;;4.60;;
6292;SDS011;3179;54.350;10.102;2022-10-31T13:44:32;12.23;;;4.13;;
6292;SDS011;3179;54.350;10.102;2022-10-31T13:47:02;8.07;;;4.13;;
6292;SDS011;3179;54.350;10.102;2022-10-31T13:49:36;8.13;;;3.97;;
6292;SDS011;3179;54.350;10.102;2022-10-31T13:52:11;10.30;;;4.07;;
6292;SDS011;3179;54.350;10.102;2022-10-31T13:54:40;7.93;;;4.40;;
6292;SDS011;3179;54.350;10.102;2022-10-31T13:57:13;9.37;;;4.43;;
6292;SDS011;3179;54.350;10.102;2022-10-31T13:59:47;6.13;;;3.83;;
6292;SDS011;3179;54.350;10.102;2022-10-31T14:02:16;12.33;;;3.97;;
6292;SDS011;3179;54.350;10.102;2022-10-31T14:04:46;7.53;;;3.83;;
6292;SDS011;3179;54.350;10.102;2022-10-31T14:07:17;7.20;;;3.70;;
6292;SDS011;3179;54.350;10.102;2022-10-31T14:09:52;9.00;;;3.70;;
6292;SDS011;3179;54.350;10.102;2022-10-31T14:12:23;10.63;;;3.80;;
6292;SDS011;3179;54.350;10.102;2022-10-31T14:14:57;8.07;;;3.90;;
6292;SDS011;3179;54.350;10.102;2022-10-31T14:17:27;7.30;;;4.30;;
6292;SDS011;3179;54.350;10.102;2022-10-31T14:19:59;6.40;;;3.70;;
6292;SDS011;3179;54.350;10.102;2022-10-31T14:22:29;12.80;;;3.73;;
6292;SDS011;3179;54.350;10.102;2022-10-31T14:24:57;5.60;;;3.87;;
6292;SDS011;3179;54.350;10.102;2022-10-31T14:30:16;10.10;;;5.20;;
6292;SDS011;3179;54.350;10.102;2022-10-31T14:32:49;8.33;;;4.50;;
6292;SDS011;3179;54.350;10.102;2022-10-31T14:35:17;8.23;;;4.93;;
6292;SDS011;3179;54.350;10.102;2022-10-31T14:38:00;5.90;;;4.23;;
6292;SDS011;3179;54.350;10.102;2022-10-31T14:40:51;9.20;;;4.57;;
6292;SDS011;3179;54.350;10.102;2022-10-31T14:43:34;8.27;;;4.73;;
6292;SDS011;3179;54.350;10.102;2022-10-31T14:46:25;11.87;;;5.43;;
6292;SDS011;3179;54.350;10.102;2022-10-31T14:49:07;6.90;;;4.40;;
6292;SDS011;3179;54.350;10.102;2022-10-31T14:51:47;7.97;;;4.27;;
6292;SDS011;3179;54.350;10.102;2022-10-31T14:54:17;9.23;;;5.10;;
6292;SDS011;3179;54.350;10.102;2022-10-31T14:56:49;7.10;;;4.07;;
6292;SDS011;3179;54.350;10.102;2022-10-31T14:59:21;10.00;;;4.80;;
6292;SDS011;3179;54.350;10.102;2022-10-31T15:01:55;7.10;;;4.60;;
6292;SDS011;3179;54.350;10.102;2022-10-31T15:04:25;6.80;;;4.17;;
6292;SDS011;3179;54.350;10.102;2022-10-31T15:06:58;7.97;;;4.87;;
6292;SDS011;3179;54.350;10.102;2022-10-31T15:09:28;7.83;;;4.80;;
6292;SDS011;3179;54.350;10.102;2022-10-31T15:11:57;10.20;;;4.80;;
6292;SDS011;3179;54.350;10.102;2022-10-31T15:14:26;7.13;;;5.40;;
6292;SDS011;3179;54.350;10.102;2022-10-31T15:16:56;8.07;;;4.50;;
6292;SDS011;3179;54.350;10.102;2022-10-31T15:19:25;6.90;;;4.70;;